Terminal Aerodrome Forecast
Issued by NWS Sterling, VA

Current Version | Previous Version | Graphics & Text | Print | Product List | Glossary On
Versions: 1 2 3 4 5 6 7 8 9 10 11 12
000
FTUS41 KLWX 270000 AAA
TAFMRB
TAF AMD
KMRB 270005Z 2700/2724 VRB03KT P6SM SKC
     FM270600 00000KT 5SM BR FEW250
     FM270700 00000KT P6SM FEW250
     FM271100 00000KT 5SM BR FEW250
     FM271200 00000KT P6SM FEW250
     FM271500 00000KT P6SM SCT050
     FM272300 32005KT P6SM BKN050=

USA.gov is the U.S. government's official web portal to all federal, state and local government web resources and services.